createdAt,value
2022-07-27T00:00:41.856Z,100.00
2022-07-27T00:03:08.192Z,100.00
2022-07-27T00:05:34.674Z,100.00
2022-07-27T00:08:00.891Z,100.00
2022-07-27T00:10:27.215Z,100.00
2022-07-27T00:12:53.485Z,100.00
2022-07-27T00:15:19.725Z,100.00
2022-07-27T00:17:46.010Z,100.00
2022-07-27T00:20:12.304Z,100.00
2022-07-27T00:22:38.609Z,100.00
2022-07-27T00:25:05.004Z,100.00
2022-07-27T00:27:31.267Z,100.00
2022-07-27T00:29:57.492Z,100.00
2022-07-27T00:32:23.703Z,100.00
2022-07-27T00:34:49.948Z,100.00
2022-07-27T00:37:16.230Z,98.32
2022-07-27T00:39:42.569Z,95.64
2022-07-27T00:42:11.811Z,95.56
2022-07-27T00:44:38.119Z,95.68
2022-07-27T00:47:04.458Z,95.31
2022-07-27T00:49:30.999Z,95.99
2022-07-27T00:51:57.316Z,96.51
2022-07-27T00:54:23.591Z,96.93
2022-07-27T00:56:49.998Z,98.45
2022-07-27T00:59:16.295Z,98.57
2022-07-27T01:01:42.775Z,99.35
2022-07-27T01:04:09.184Z,100.00
2022-07-27T01:06:35.507Z,100.00
2022-07-27T01:09:01.974Z,100.00
2022-07-27T01:11:28.254Z,100.00
2022-07-27T01:13:54.500Z,100.00
2022-07-27T01:16:20.833Z,100.00
2022-07-27T01:18:47.187Z,100.00
2022-07-27T01:21:13.563Z,100.00
2022-07-27T01:23:39.851Z,100.00
2022-07-27T01:26:06.162Z,100.00
2022-07-27T01:28:32.495Z,100.00
2022-07-27T01:30:58.812Z,100.00
2022-07-27T01:33:25.265Z,100.00
2022-07-27T01:35:51.610Z,100.00
2022-07-27T01:38:17.827Z,100.00
2022-07-27T01:40:44.073Z,100.00
2022-07-27T01:43:10.285Z,100.00
2022-07-27T01:45:36.516Z,100.00
2022-07-27T01:48:02.762Z,100.00
2022-07-27T01:50:29.115Z,100.00
2022-07-27T01:52:55.389Z,100.00
2022-07-27T01:55:21.702Z,100.00
2022-07-27T01:57:48.083Z,100.00
2022-07-27T02:00:14.438Z,100.00
2022-07-27T02:02:40.678Z,100.00
2022-07-27T02:05:07.083Z,100.00
2022-07-27T02:07:33.380Z,100.00
2022-07-27T02:09:59.847Z,100.00
2022-07-27T02:12:26.090Z,100.00
2022-07-27T02:14:52.564Z,100.00
2022-07-27T02:17:21.077Z,100.00
2022-07-27T02:19:47.817Z,100.00
2022-07-27T02:22:14.275Z,100.00
2022-07-27T02:24:40.547Z,100.00
2022-07-27T02:27:06.875Z,100.00
2022-07-27T02:29:33.163Z,100.00
2022-07-27T02:31:59.433Z,100.00
2022-07-27T02:34:25.728Z,100.00
2022-07-27T02:36:52.008Z,100.00
2022-07-27T02:39:18.281Z,100.00
2022-07-27T02:41:44.552Z,100.00
2022-07-27T02:44:10.781Z,100.00
2022-07-27T02:46:37.175Z,100.00
2022-07-27T02:49:03.600Z,100.00
2022-07-27T02:51:29.927Z,100.00
2022-07-27T02:53:56.179Z,100.00
2022-07-27T02:56:26.893Z,100.00
2022-07-27T02:58:53.436Z,100.00
2022-07-27T03:01:19.823Z,100.00
2022-07-27T03:03:46.132Z,100.00
2022-07-27T03:06:12.432Z,100.00
2022-07-27T03:08:38.879Z,100.00
2022-07-27T03:11:05.355Z,100.00
2022-07-27T03:13:31.667Z,100.00
2022-07-27T03:15:58.055Z,100.00
2022-07-27T03:18:24.495Z,100.00
2022-07-27T03:20:50.801Z,100.00
2022-07-27T03:23:17.067Z,100.00
2022-07-27T03:25:43.391Z,100.00
2022-07-27T03:28:09.657Z,100.00
2022-07-27T03:30:36.001Z,100.00
2022-07-27T03:33:02.298Z,100.00
2022-07-27T03:35:28.611Z,100.00
2022-07-27T03:37:54.889Z,100.00
2022-07-27T03:40:21.189Z,100.00
2022-07-27T03:42:47.519Z,100.00
2022-07-27T03:45:13.854Z,100.00
2022-07-27T03:47:40.191Z,100.00
2022-07-27T03:50:06.497Z,100.00
2022-07-27T03:52:32.741Z,100.00
2022-07-27T03:54:59.026Z,100.00
2022-07-27T03:57:25.272Z,100.00
2022-07-27T03:59:51.613Z,100.00
2022-07-27T04:02:17.991Z,100.00
2022-07-27T04:04:44.382Z,100.00
2022-07-27T04:07:10.692Z,100.00
2022-07-27T04:09:36.992Z,100.00
2022-07-27T04:12:04.157Z,100.00
2022-07-27T04:14:31.056Z,100.00
2022-07-27T04:16:57.513Z,100.00
2022-07-27T04:19:23.831Z,100.00
2022-07-27T04:21:50.132Z,100.00
2022-07-27T04:24:16.359Z,100.00
2022-07-27T04:26:42.650Z,100.00
2022-07-27T04:29:09.087Z,100.00
2022-07-27T04:31:35.676Z,100.00
2022-07-27T04:34:02.051Z,100.00
2022-07-27T04:36:28.334Z,100.00
2022-07-27T04:38:54.566Z,100.00
2022-07-27T04:41:21.021Z,100.00
2022-07-27T04:43:47.453Z,100.00
2022-07-27T04:46:15.426Z,100.00
2022-07-27T04:48:42.076Z,100.00
2022-07-27T04:51:15.672Z,100.00
2022-07-27T04:53:53.330Z,100.00
2022-07-27T04:56:24.857Z,100.00
2022-07-27T04:58:51.229Z,100.00
2022-07-27T05:01:17.570Z,100.00
2022-07-27T05:03:43.851Z,100.00
2022-07-27T05:06:10.150Z,100.00
2022-07-27T05:08:36.411Z,100.00
2022-07-27T05:11:02.698Z,100.00
2022-07-27T05:13:28.972Z,100.00
2022-07-27T05:15:56.029Z,100.00
2022-07-27T05:18:22.454Z,100.00
2022-07-27T05:20:48.801Z,100.00
2022-07-27T05:23:16.616Z,100.00
2022-07-27T05:25:42.929Z,100.00
2022-07-27T05:28:09.221Z,100.00
2022-07-27T05:30:35.541Z,100.00
2022-07-27T05:33:01.775Z,100.00
2022-07-27T05:35:28.083Z,100.00
2022-07-27T05:37:54.359Z,100.00
2022-07-27T05:40:20.662Z,100.00
2022-07-27T05:42:46.971Z,100.00
2022-07-27T05:45:13.346Z,100.00
2022-07-27T05:47:39.596Z,100.00
2022-07-27T05:50:05.912Z,100.00
2022-07-27T05:52:32.239Z,100.00
2022-07-27T05:54:58.515Z,100.00
2022-07-27T05:57:24.744Z,100.00
2022-07-27T05:59:51.011Z,100.00
2022-07-27T06:02:17.229Z,100.00
2022-07-27T06:04:43.451Z,100.00
2022-07-27T06:07:09.660Z,100.00
2022-07-27T06:09:35.887Z,100.00
2022-07-27T06:12:02.100Z,100.00
2022-07-27T06:14:28.364Z,100.00
2022-07-27T06:16:54.667Z,100.00
2022-07-27T06:19:21.055Z,100.00
2022-07-27T06:21:53.098Z,100.00
2022-07-27T06:24:19.923Z,100.00
2022-07-27T06:26:46.139Z,100.00
2022-07-27T06:29:12.797Z,100.00
2022-07-27T06:31:39.443Z,100.00
2022-07-27T06:34:11.737Z,100.00
2022-07-27T06:36:38.203Z,100.00
2022-07-27T06:39:04.416Z,100.00
2022-07-27T06:41:30.675Z,100.00
2022-07-27T06:43:56.919Z,100.00
2022-07-27T06:46:23.189Z,100.00
2022-07-27T06:48:49.489Z,100.00
2022-07-27T06:51:15.842Z,100.00
2022-07-27T06:53:42.060Z,100.00
2022-07-27T06:56:08.364Z,100.00
2022-07-27T06:58:34.596Z,100.00
2022-07-27T07:01:00.843Z,100.00
2022-07-27T07:03:27.090Z,100.00
2022-07-27T07:05:53.396Z,100.00
2022-07-27T07:08:19.688Z,100.00
2022-07-27T07:10:45.925Z,100.00
2022-07-27T07:13:12.166Z,100.00
2022-07-27T07:15:38.428Z,100.00
2022-07-27T07:18:04.650Z,100.00
2022-07-27T07:20:30.875Z,100.00
2022-07-27T07:22:57.153Z,100.00
2022-07-27T07:25:23.437Z,100.00
2022-07-27T07:27:49.815Z,100.00
2022-07-27T07:30:16.155Z,100.00
2022-07-27T07:32:42.419Z,100.00
2022-07-27T07:35:08.649Z,100.00
2022-07-27T07:37:34.926Z,100.00
2022-07-27T07:40:12.964Z,100.00
2022-07-27T07:42:47.443Z,100.00
2022-07-27T07:45:13.742Z,100.00
2022-07-27T07:47:40.007Z,100.00
2022-07-27T07:50:06.339Z,100.00
2022-07-27T07:52:32.716Z,100.00
2022-07-27T07:54:59.210Z,100.00
2022-07-27T07:57:25.599Z,100.00
2022-07-27T07:59:51.862Z,100.00
2022-07-27T08:02:18.163Z,100.00
2022-07-27T08:04:44.515Z,100.00
2022-07-27T08:07:10.822Z,98.78
2022-07-27T08:09:38.395Z,99.45
2022-07-27T08:12:04.632Z,100.00
2022-07-27T08:14:30.918Z,94.62
2022-07-27T08:16:57.182Z,95.60
2022-07-27T08:19:23.449Z,98.60
2022-07-27T08:21:49.759Z,99.50
2022-07-27T08:24:16.006Z,93.50
2022-07-27T08:26:42.262Z,95.27
2022-07-27T08:29:13.538Z,91.49
2022-07-27T08:31:52.397Z,90.12
2022-07-27T08:34:19.698Z,89.74
2022-07-27T08:36:46.175Z,91.84
2022-07-27T08:39:41.122Z,91.45
2022-07-27T08:41:58.899Z,92.29
2022-07-27T08:44:25.381Z,94.85
2022-07-27T08:46:51.722Z,95.24
2022-07-27T08:49:18.677Z,96.62
2022-07-27T08:51:47.345Z,96.45
2022-07-27T08:54:13.872Z,98.08
2022-07-27T08:56:40.165Z,98.54
2022-07-27T08:59:06.433Z,98.00
2022-07-27T09:01:32.796Z,97.46
2022-07-27T09:03:59.077Z,96.20
2022-07-27T09:06:25.458Z,92.06
2022-07-27T09:08:53.423Z,92.88
2022-07-27T09:11:19.832Z,93.80
2022-07-27T09:13:46.154Z,95.39
2022-07-27T09:16:20.773Z,91.54
2022-07-27T09:18:47.551Z,85.94
2022-07-27T09:21:13.981Z,82.77
2022-07-27T09:23:40.242Z,81.98
2022-07-27T09:26:16.707Z,82.95
2022-07-27T09:28:52.785Z,83.50
2022-07-27T09:31:19.312Z,84.80
2022-07-27T09:33:45.578Z,85.77
2022-07-27T09:36:11.919Z,81.96
2022-07-27T09:38:38.222Z,78.84
2022-07-27T09:41:04.547Z,77.12
2022-07-27T09:46:17.360Z,77.04
2022-07-27T09:48:43.690Z,74.65
2022-07-27T09:51:55.899Z,75.34
2022-07-27T09:53:56.301Z,75.71
2022-07-27T09:56:22.557Z,74.95
2022-07-27T09:58:48.816Z,76.79
2022-07-27T10:01:15.367Z,76.28
2022-07-27T10:03:41.635Z,76.82
2022-07-27T10:06:07.961Z,78.67
2022-07-27T10:08:36.488Z,79.17
2022-07-27T10:11:03.767Z,81.55
2022-07-27T10:13:30.327Z,81.14
2022-07-27T10:15:56.920Z,82.46
2022-07-27T10:18:25.650Z,83.42
2022-07-27T10:20:52.025Z,84.92
2022-07-27T10:23:18.287Z,85.82
2022-07-27T10:25:44.577Z,83.76
2022-07-27T10:28:10.806Z,84.07
2022-07-27T10:30:37.158Z,82.43
2022-07-27T10:33:03.451Z,80.15
2022-07-27T10:35:29.751Z,78.02
2022-07-27T10:37:55.983Z,75.47
2022-07-27T10:40:22.438Z,73.05
2022-07-27T10:42:54.004Z,75.21
2022-07-27T10:45:20.833Z,74.96
2022-07-27T10:47:47.289Z,74.36
2022-07-27T10:50:13.840Z,73.81
2022-07-27T10:52:40.164Z,76.02
2022-07-27T10:55:06.466Z,75.39
2022-07-27T10:57:32.735Z,73.83
2022-07-27T11:00:09.122Z,73.47
2022-07-27T11:02:36.360Z,73.52
2022-07-27T11:05:02.812Z,71.42
2022-07-27T11:07:39.689Z,72.19
2022-07-27T11:10:10.311Z,73.01
2022-07-27T11:12:36.527Z,72.34
2022-07-27T11:15:02.809Z,72.68
2022-07-27T11:20:15.244Z,70.10
2022-07-27T11:25:27.952Z,69.90
2022-07-27T11:27:54.236Z,68.35
2022-07-27T11:30:20.723Z,69.34
2022-07-27T11:32:47.086Z,68.32
2022-07-27T11:35:19.229Z,69.13
2022-07-27T11:37:46.232Z,71.33
2022-07-27T11:40:37.484Z,71.74
2022-07-27T11:42:58.779Z,72.39
2022-07-27T11:45:25.213Z,72.41
2022-07-27T11:47:51.492Z,72.65
2022-07-27T11:50:17.786Z,72.94
2022-07-27T11:52:44.114Z,73.63
2022-07-27T11:55:12.411Z,72.63
2022-07-27T11:57:39.968Z,70.73
2022-07-27T12:00:06.244Z,71.87
2022-07-27T12:02:32.860Z,69.34
2022-07-27T12:05:02.835Z,69.46
2022-07-27T12:07:29.628Z,64.23
2022-07-27T12:09:55.932Z,65.66
2022-07-27T12:12:22.243Z,63.78
2022-07-27T12:14:48.575Z,63.81
2022-07-27T12:17:14.956Z,63.72
2022-07-27T12:19:41.257Z,64.13
2022-07-27T12:22:07.574Z,66.14
2022-07-27T12:24:33.858Z,66.67
2022-07-27T12:27:05.937Z,66.60
2022-07-27T12:29:32.829Z,68.05
2022-07-27T12:31:59.137Z,68.50
2022-07-27T12:34:25.413Z,69.04
2022-07-27T12:36:51.734Z,66.48
2022-07-27T12:39:17.996Z,65.52
2022-07-27T12:41:44.227Z,66.32
2022-07-27T12:44:10.448Z,65.34
2022-07-27T12:46:36.776Z,64.90
2022-07-27T12:49:03.059Z,64.28
2022-07-27T12:51:29.400Z,64.08
2022-07-27T12:53:55.657Z,65.58
2022-07-27T12:56:26.891Z,67.21
2022-07-27T12:58:53.847Z,66.03
2022-07-27T13:01:20.406Z,64.36
2022-07-27T13:03:46.777Z,61.40
2022-07-27T13:06:13.349Z,60.33
2022-07-27T13:08:39.639Z,61.06
2022-07-27T13:11:06.019Z,61.55
2022-07-27T13:13:32.340Z,60.62
2022-07-27T13:15:58.827Z,58.44
2022-07-27T13:18:25.134Z,60.77
2022-07-27T13:20:51.426Z,60.24
2022-07-27T13:23:17.636Z,58.56
2022-07-27T13:25:43.976Z,57.25
2022-07-27T13:28:10.339Z,54.75
2022-07-27T13:30:36.627Z,55.20
2022-07-27T13:33:02.907Z,55.67
2022-07-27T13:35:29.222Z,54.87
2022-07-27T13:37:55.695Z,55.57
2022-07-27T13:40:21.989Z,55.58
2022-07-27T13:42:48.310Z,55.21
2022-07-27T13:45:14.527Z,56.03
2022-07-27T13:47:40.782Z,55.55
2022-07-27T13:50:07.234Z,53.60
2022-07-27T13:52:33.524Z,52.42
2022-07-27T13:54:59.897Z,51.65
2022-07-27T13:57:26.117Z,52.72
2022-07-27T13:59:52.401Z,53.14
2022-07-27T14:02:22.834Z,53.96
2022-07-27T14:04:49.708Z,54.17
2022-07-27T14:07:16.498Z,55.05
2022-07-27T14:09:42.748Z,54.38
2022-07-27T14:12:09.061Z,54.62
2022-07-27T14:14:35.368Z,53.67
2022-07-27T14:17:01.963Z,53.28
2022-07-27T14:19:31.173Z,53.62
2022-07-27T14:21:57.481Z,52.79
2022-07-27T14:24:23.710Z,51.16
2022-07-27T14:26:49.966Z,52.39
2022-07-27T14:29:16.515Z,51.37
2022-07-27T14:31:42.897Z,52.01
2022-07-27T14:34:09.162Z,53.22
2022-07-27T14:36:35.414Z,53.60
2022-07-27T14:39:01.639Z,54.18
2022-07-27T14:41:27.898Z,54.08
2022-07-27T14:43:54.129Z,55.66
2022-07-27T14:46:20.469Z,56.93
2022-07-27T14:49:05.717Z,56.89
2022-07-27T14:51:32.800Z,57.01
2022-07-27T14:53:59.023Z,56.79
2022-07-27T14:56:25.302Z,57.43
2022-07-27T14:58:51.525Z,56.95
2022-07-27T15:01:17.850Z,57.13
2022-07-27T15:03:44.117Z,56.57
2022-07-27T15:06:10.402Z,57.48
2022-07-27T15:08:36.648Z,57.45
2022-07-27T15:11:02.944Z,57.54
2022-07-27T15:13:29.199Z,56.90
2022-07-27T15:15:55.467Z,57.57
2022-07-27T15:18:21.704Z,57.61
2022-07-27T15:20:47.974Z,57.80
2022-07-27T15:23:14.208Z,57.33
2022-07-27T15:25:40.467Z,56.96
2022-07-27T15:28:06.716Z,56.86
2022-07-27T15:30:38.404Z,57.15
2022-07-27T15:33:05.113Z,55.04
2022-07-27T15:35:31.368Z,53.87
2022-07-27T15:37:57.597Z,54.25
2022-07-27T15:40:23.855Z,53.19
2022-07-27T15:42:50.103Z,51.25
2022-07-27T15:45:16.329Z,51.93
2022-07-27T15:47:42.564Z,52.37
2022-07-27T15:50:08.775Z,53.22
2022-07-27T15:52:35.100Z,53.51
2022-07-27T15:55:01.346Z,52.73
2022-07-27T15:57:27.571Z,53.67
2022-07-27T15:59:53.902Z,53.30
2022-07-27T16:02:24.711Z,54.03
2022-07-27T16:04:51.777Z,54.16
2022-07-27T16:07:18.035Z,53.73
2022-07-27T16:09:44.259Z,53.01
2022-07-27T16:12:10.513Z,52.15
2022-07-27T16:14:36.742Z,51.43
2022-07-27T16:17:03.042Z,49.54
2022-07-27T16:19:29.292Z,49.93
2022-07-27T16:21:56.085Z,50.97
2022-07-27T16:24:22.423Z,50.33
2022-07-27T16:26:48.665Z,51.46
2022-07-27T16:29:15.235Z,51.29
2022-07-27T16:31:41.966Z,51.43
2022-07-27T16:34:08.241Z,50.99
2022-07-27T16:36:38.694Z,50.01
2022-07-27T16:39:05.654Z,50.63
2022-07-27T16:41:32.130Z,51.11
2022-07-27T16:43:58.484Z,51.96
2022-07-27T16:46:24.782Z,51.94
2022-07-27T16:48:51.072Z,53.02
2022-07-27T16:51:17.351Z,53.48
2022-07-27T16:53:43.581Z,53.16
2022-07-27T16:56:09.837Z,53.85
2022-07-27T16:58:36.068Z,54.44
2022-07-27T17:01:02.323Z,54.33
2022-07-27T17:03:28.599Z,55.64
2022-07-27T17:05:54.802Z,53.13
2022-07-27T17:08:21.136Z,52.47
2022-07-27T17:10:54.061Z,52.60
2022-07-27T17:13:20.365Z,53.14
2022-07-27T17:15:47.147Z,52.59
2022-07-27T17:18:13.403Z,52.78
2022-07-27T17:20:39.612Z,51.85
2022-07-27T17:23:05.940Z,52.81
2022-07-27T17:25:32.278Z,54.37
2022-07-27T17:27:58.548Z,54.87
2022-07-27T17:30:24.791Z,54.58
2022-07-27T17:32:50.997Z,54.73
2022-07-27T17:35:17.219Z,53.33
2022-07-27T17:38:04.554Z,53.00
2022-07-27T17:40:29.706Z,54.02
2022-07-27T17:42:55.982Z,55.03
2022-07-27T17:45:22.209Z,55.91
2022-07-27T17:47:48.530Z,55.80
2022-07-27T17:50:14.802Z,56.34
2022-07-27T17:52:41.063Z,56.46
2022-07-27T17:55:07.312Z,56.73
2022-07-27T17:57:33.694Z,57.23
2022-07-27T17:59:59.942Z,57.17
2022-07-27T18:02:26.322Z,57.48
2022-07-27T18:04:52.598Z,57.03
2022-07-27T18:07:18.856Z,57.72
2022-07-27T18:09:45.115Z,57.95
2022-07-27T18:12:11.485Z,58.04
2022-07-27T18:14:38.440Z,58.68
2022-07-27T18:17:04.929Z,58.26
2022-07-27T18:19:31.210Z,57.16
2022-07-27T18:21:57.525Z,57.19
2022-07-27T18:24:23.858Z,56.77
2022-07-27T18:26:50.309Z,57.28
2022-07-27T18:29:17.602Z,56.81
2022-07-27T18:31:44.016Z,56.93
2022-07-27T18:34:12.899Z,56.37
2022-07-27T18:36:39.455Z,57.32
2022-07-27T18:39:05.910Z,57.57
2022-07-27T18:41:32.390Z,58.09
2022-07-27T18:43:58.623Z,57.97
2022-07-27T18:46:25.191Z,59.06
2022-07-27T18:48:51.568Z,58.85
2022-07-27T18:51:17.873Z,59.53
2022-07-27T18:53:44.131Z,60.38
2022-07-27T18:56:10.384Z,61.12
2022-07-27T18:58:36.607Z,61.32
2022-07-27T19:01:02.931Z,61.68
2022-07-27T19:03:29.180Z,62.03
2022-07-27T19:05:55.494Z,62.84
2022-07-27T19:08:21.721Z,63.09
2022-07-27T19:10:48.159Z,63.76
2022-07-27T19:13:14.539Z,64.54
2022-07-27T19:15:40.790Z,64.65
2022-07-27T19:18:07.184Z,65.08
2022-07-27T19:20:33.434Z,65.57
2022-07-27T19:22:59.688Z,65.52
2022-07-27T19:25:25.912Z,66.55
2022-07-27T19:27:52.245Z,66.36
2022-07-27T19:30:18.583Z,67.20
2022-07-27T19:32:44.904Z,68.13
2022-07-27T19:35:11.202Z,69.57
2022-07-27T19:37:37.470Z,69.17
2022-07-27T19:40:20.294Z,69.33
2022-07-27T19:42:50.006Z,69.76
2022-07-27T19:45:16.246Z,69.41
2022-07-27T19:47:42.482Z,70.06
2022-07-27T19:50:08.728Z,69.95
2022-07-27T19:52:34.967Z,70.85
2022-07-27T19:55:01.255Z,70.85
2022-07-27T19:57:27.495Z,71.01
2022-07-27T19:59:55.290Z,72.47
2022-07-27T20:02:22.941Z,72.74
2022-07-27T20:04:49.248Z,73.63
2022-07-27T20:07:15.570Z,74.06
2022-07-27T20:09:41.949Z,74.36
2022-07-27T20:12:08.370Z,74.74
2022-07-27T20:14:34.706Z,75.85
2022-07-27T20:17:01.039Z,75.93
2022-07-27T20:19:27.340Z,76.36
2022-07-27T20:21:53.653Z,76.66
2022-07-27T20:24:19.926Z,77.59
2022-07-27T20:26:49.140Z,78.31
2022-07-27T20:29:16.082Z,78.45
2022-07-27T20:31:42.466Z,78.82
2022-07-27T20:34:08.744Z,80.10
2022-07-27T20:36:35.006Z,80.50
2022-07-27T20:39:01.317Z,81.05
2022-07-27T20:41:27.589Z,81.23
2022-07-27T20:43:53.896Z,82.00
2022-07-27T20:46:20.199Z,82.83
2022-07-27T20:48:46.502Z,83.63
2022-07-27T20:51:12.768Z,83.61
2022-07-27T20:53:39.021Z,83.29
2022-07-27T20:56:05.289Z,84.05
2022-07-27T20:58:31.604Z,83.25
2022-07-27T21:00:57.902Z,83.25
2022-07-27T21:03:24.178Z,83.31
2022-07-27T21:05:50.437Z,83.58
2022-07-27T21:08:16.696Z,83.61
2022-07-27T21:10:42.953Z,84.84
2022-07-27T21:13:09.176Z,84.53
2022-07-27T21:15:35.411Z,84.55
2022-07-27T21:18:01.654Z,85.46
2022-07-27T21:20:27.897Z,85.52
2022-07-27T21:22:54.145Z,86.19
2022-07-27T21:25:20.408Z,87.09
2022-07-27T21:27:46.938Z,87.39
2022-07-27T21:30:14.530Z,87.71
2022-07-27T21:32:40.762Z,88.48
2022-07-27T21:35:07.432Z,87.87
2022-07-27T21:37:33.857Z,88.90
2022-07-27T21:40:00.124Z,88.76
2022-07-27T21:42:26.431Z,90.18
2022-07-27T21:44:52.656Z,89.68
2022-07-27T21:47:18.909Z,90.23
2022-07-27T21:49:45.126Z,92.77
2022-07-27T21:52:11.503Z,94.48
2022-07-27T21:54:37.816Z,92.69
2022-07-27T21:57:04.072Z,93.15
2022-07-27T21:59:30.309Z,93.57
2022-07-27T22:01:56.549Z,93.26
2022-07-27T22:04:22.823Z,94.33
2022-07-27T22:06:49.127Z,94.08
2022-07-27T22:09:15.430Z,94.67
2022-07-27T22:11:41.730Z,95.50
2022-07-27T22:14:08.781Z,95.72
2022-07-27T22:16:35.245Z,96.48
2022-07-27T22:19:01.626Z,96.38
2022-07-27T22:21:28.437Z,97.07
2022-07-27T22:23:54.742Z,97.48
2022-07-27T22:26:21.024Z,97.80
2022-07-27T22:28:47.306Z,98.36
2022-07-27T22:31:22.430Z,99.59
2022-07-27T22:33:49.592Z,99.86
2022-07-27T22:36:15.901Z,99.26
2022-07-27T22:38:42.243Z,99.89
2022-07-27T22:41:08.574Z,100.00
2022-07-27T22:43:34.925Z,100.00
2022-07-27T22:46:01.439Z,100.00
2022-07-27T22:48:27.751Z,100.00
2022-07-27T22:50:54.009Z,100.00
2022-07-27T22:53:20.347Z,100.00
2022-07-27T22:55:46.669Z,100.00
2022-07-27T22:58:12.917Z,100.00
2022-07-27T23:00:39.311Z,100.00
2022-07-27T23:03:05.589Z,100.00
2022-07-27T23:05:31.971Z,100.00
2022-07-27T23:07:58.305Z,100.00
2022-07-27T23:10:30.223Z,100.00
2022-07-27T23:12:56.949Z,100.00
2022-07-27T23:15:23.419Z,100.00
2022-07-27T23:17:49.721Z,100.00
2022-07-27T23:20:15.974Z,100.00
2022-07-27T23:22:42.276Z,100.00
2022-07-27T23:25:15.803Z,100.00
2022-07-27T23:27:42.155Z,100.00
2022-07-27T23:30:08.489Z,100.00
2022-07-27T23:32:34.815Z,100.00
2022-07-27T23:35:01.104Z,100.00
2022-07-27T23:37:27.436Z,100.00
2022-07-27T23:39:53.800Z,100.00
2022-07-27T23:42:20.136Z,100.00
2022-07-27T23:44:46.449Z,100.00
2022-07-27T23:47:13.341Z,100.00
2022-07-27T23:49:39.864Z,100.00
2022-07-27T23:52:06.175Z,100.00
2022-07-27T23:54:32.410Z,100.00
2022-07-27T23:56:58.722Z,100.00
2022-07-27T23:59:25.082Z,100.00
